createdAt,value
2022-12-01T00:08:05.878Z,97737.03
2022-12-01T00:18:10.953Z,97743.20
2022-12-01T00:28:14.599Z,97744.16
2022-12-01T00:38:19.167Z,97757.59
2022-12-01T00:48:23.778Z,97754.36
2022-12-01T00:58:27.938Z,97745.64
2022-12-01T01:08:31.912Z,97733.10
2022-12-01T01:18:35.676Z,97719.73
2022-12-01T01:28:41.895Z,97719.96
2022-12-01T01:38:46.688Z,97709.27
2022-12-01T01:49:08.177Z,97704.04
2022-12-01T01:59:15.572Z,97705.27
2022-12-01T02:09:19.222Z,97708.61
2022-12-01T02:19:41.567Z,97713.61
2022-12-01T02:30:12.862Z,97708.08
2022-12-01T02:40:34.339Z,97700.90
2022-12-01T02:50:41.184Z,97684.85
2022-12-01T03:00:54.357Z,97688.63
2022-12-01T03:11:00.095Z,97685.60
2022-12-01T03:21:13.659Z,97679.89
2022-12-01T03:31:21.682Z,97672.93
2022-12-01T03:41:32.070Z,97658.38
2022-12-01T03:51:45.317Z,97648.74
2022-12-01T04:01:50.123Z,97642.00
2022-12-01T04:12:12.915Z,97636.98
2022-12-01T04:22:16.669Z,97643.81
2022-12-01T04:32:20.764Z,97647.30
2022-12-01T04:42:24.610Z,97651.35
2022-12-01T04:52:32.127Z,97653.04
2022-12-01T05:02:43.581Z,97657.17
2022-12-01T05:12:47.857Z,97657.81
2022-12-01T05:23:10.773Z,97658.77
2022-12-01T05:33:16.612Z,97664.83
2022-12-01T05:43:28.332Z,97666.55
2022-12-01T05:53:33.150Z,97669.70
2022-12-01T06:03:37.225Z,97667.85
2022-12-01T06:13:41.160Z,97675.41
2022-12-01T06:23:45.163Z,97680.10
2022-12-01T06:33:49.039Z,97678.08
2022-12-01T06:43:53.512Z,97681.85
2022-12-01T06:54:02.215Z,97682.29
2022-12-01T07:04:09.557Z,97684.42
2022-12-01T07:14:25.308Z,97683.87
2022-12-01T07:24:30.406Z,97683.25
2022-12-01T07:34:34.862Z,97684.79
2022-12-01T07:44:38.419Z,97690.54
2022-12-01T07:54:42.496Z,97694.71
2022-12-01T08:04:46.265Z,97690.95
2022-12-01T08:14:50.126Z,97690.35
2022-12-01T08:24:53.890Z,97697.73
2022-12-01T08:34:57.799Z,97699.69
2022-12-01T08:45:01.563Z,97704.00
2022-12-01T08:55:06.593Z,97708.64
2022-12-01T09:05:11.321Z,97707.21
2022-12-01T09:15:15.406Z,97706.53
2022-12-01T09:25:19.252Z,97704.80
2022-12-01T09:35:23.653Z,97699.38
2022-12-01T09:45:32.352Z,97693.38
2022-12-01T09:55:37.242Z,97693.39
2022-12-01T10:06:25.089Z,97693.70
2022-12-01T10:16:38.985Z,97687.83
2022-12-01T10:26:54.100Z,97684.45
2022-12-01T10:36:59.363Z,97671.10
2022-12-01T10:47:03.998Z,97664.37
2022-12-01T10:57:16.485Z,97655.21
2022-12-01T11:07:30.452Z,97649.52
2022-12-01T11:17:45.256Z,97645.09
2022-12-01T11:27:54.588Z,97639.38
2022-12-01T11:48:30.100Z,97645.27
2022-12-01T11:58:34.162Z,97640.52
2022-12-01T12:09:18.298Z,97641.92
2022-12-01T12:20:00.252Z,97643.60
2022-12-01T12:30:28.757Z,97645.78
2022-12-01T12:40:44.173Z,97644.04
2022-12-01T12:51:04.041Z,97635.90
2022-12-01T13:01:16.870Z,97636.86
2022-12-01T13:11:27.634Z,97634.10
2022-12-01T13:21:37.930Z,97636.94
2022-12-01T13:31:45.226Z,97646.73
2022-12-01T13:42:03.191Z,97642.37
2022-12-01T13:52:22.534Z,97648.02
2022-12-01T14:02:35.570Z,97646.80
2022-12-01T14:12:42.539Z,97646.42
2022-12-01T14:22:50.630Z,97643.39
2022-12-01T14:33:33.219Z,97639.74
2022-12-01T14:44:00.877Z,97638.23
2022-12-01T14:54:12.734Z,97633.19
2022-12-01T15:04:16.375Z,97640.31
2022-12-01T15:14:34.061Z,97641.27
2022-12-01T15:24:37.933Z,97642.84
2022-12-01T15:34:44.601Z,97642.61
2022-12-01T15:45:00.561Z,97643.15
2022-12-01T15:55:05.778Z,97644.81
2022-12-01T16:05:09.582Z,97644.27
2022-12-01T16:15:18.724Z,97646.71
2022-12-01T16:25:32.975Z,97650.78
2022-12-01T16:35:36.944Z,97650.34
2022-12-01T16:45:40.755Z,97649.44
2022-12-01T16:55:52.615Z,97634.95
2022-12-01T17:06:00.962Z,97638.73
2022-12-01T17:16:07.972Z,97637.35
2022-12-01T17:26:18.600Z,97639.48
2022-12-01T17:36:23.688Z,97639.80
2022-12-01T17:46:28.661Z,97641.10
2022-12-01T17:56:33.480Z,97635.40
2022-12-01T18:06:39.037Z,97642.61
2022-12-01T18:16:50.580Z,97645.67
2022-12-01T18:26:57.686Z,97642.90
2022-12-01T18:37:06.958Z,97644.38
2022-12-01T18:47:12.832Z,97639.89
2022-12-01T18:57:20.997Z,97632.64
2022-12-01T19:07:43.184Z,97627.73
2022-12-01T19:17:52.241Z,97626.91
2022-12-01T19:27:58.886Z,97630.65
2022-12-01T19:38:06.102Z,97631.50
2022-12-01T19:48:10.817Z,97621.84
2022-12-01T19:58:16.199Z,97622.08
2022-12-01T20:08:21.803Z,97623.70
2022-12-01T20:18:27.930Z,97620.48
2022-12-01T20:28:35.218Z,97622.63
2022-12-01T20:38:42.683Z,97622.26
2022-12-01T20:48:48.127Z,97615.71
2022-12-01T20:58:54.237Z,97618.36
2022-12-01T21:09:00.138Z,97620.12
2022-12-01T21:19:14.579Z,97613.05
2022-12-01T21:29:40.799Z,97618.36
2022-12-01T21:39:45.558Z,97612.39
2022-12-01T21:50:00.392Z,97605.89
2022-12-01T22:00:30.732Z,97606.81
2022-12-01T22:10:52.098Z,97609.66
2022-12-01T22:20:57.252Z,97605.65
2022-12-01T22:31:02.558Z,97597.30
2022-12-01T22:41:12.515Z,97594.05
2022-12-01T22:51:40.537Z,97596.31
2022-12-01T23:01:51.633Z,97586.71
2022-12-01T23:12:16.645Z,97585.55
2022-12-01T23:22:20.918Z,97578.66
2022-12-01T23:32:24.471Z,97577.12
2022-12-01T23:42:28.436Z,97581.98
2022-12-01T23:52:36.912Z,97582.67
